Time;durP1;ratioP1;P1;durP2;ratioP2;P2;SDS_P1;SDS_P2;PMS_P1;PMS_P2;Temp;Humidity;BMP_temperature;BMP_pressure;BME280_temperature;BME280_humidity;BME280_pressure;Samples;Min_cycle;Max_cycle;Signal;HPM_P1;HPM_P2
2022/11/19 00:01:03;;;;;;;;;;;20.60;99.90;;;;;;5072623;28;19909;-68
2022/11/19 00:03:31;;;;;;;;;;;20.60;99.90;;;;;;5072557;28;20279;-68
2022/11/19 00:06:01;;;;;;;;;;;20.60;99.90;;;;;;5073484;28;19912;-68
2022/11/19 00:08:28;;;;;;;;;;;20.60;99.90;;;;;;5073333;28;19919;-68
2022/11/19 00:10:55;;;;;;;;;;;20.60;99.90;;;;;;5072961;28;19915;-69
2022/11/19 00:13:21;;;;;;;;;;;20.70;99.90;;;;;;5073298;28;19999;-69
2022/11/19 00:15:48;;;;;;;;;;;20.60;99.90;;;;;;5072347;28;19909;-69
2022/11/19 00:18:14;;;;;;;;;;;20.70;99.90;;;;;;5073402;28;19913;-69
2022/11/19 00:20:41;;;;;;;;;;;20.70;99.90;;;;;;5073634;28;20374;-69
2022/11/19 00:23:08;;;;;;;;;;;20.80;99.90;;;;;;5073297;28;20379;-69
2022/11/19 00:25:34;;;;;;;;;;;20.80;99.90;;;;;;5073241;28;19908;-68
2022/11/19 00:28:01;;;;;;;;;;;20.80;99.90;;;;;;5073232;28;19954;-69
2022/11/19 00:30:28;;;;;;;;;;;20.80;99.90;;;;;;5072256;28;19955;-69
2022/11/19 00:32:55;;;;;;;;;;;20.70;99.90;;;;;;5072264;28;19912;-69
2022/11/19 00:35:22;;;;;;;;;;;20.70;99.90;;;;;;5073190;28;19956;-69
2022/11/19 00:37:48;;;;;;;;;;;20.80;99.90;;;;;;5073335;28;19954;-69
2022/11/19 00:40:15;;;;;;;;;;;20.90;99.90;;;;;;5073293;28;20003;-69
2022/11/19 00:43:45;;;;;;;;;;;21.00;99.90;;;;;;5073043;28;20369;-69
2022/11/19 00:45:28;;;;;;;;;;;21.30;99.90;;;;;;5072259;28;19912;-69
2022/11/19 00:47:55;;;;;;;;;;;21.70;99.90;;;;;;5073129;28;19998;-69
2022/11/19 00:50:21;;;;;;;;;;;22.20;99.90;;;;;;5073036;28;19915;-69
2022/11/19 00:52:48;;;;;;;;;;;22.80;99.90;;;;;;5072979;28;19912;-69
2022/11/19 00:55:15;;;;;;;;;;;23.20;99.90;;;;;;5072723;28;19928;-68
2022/11/19 00:57:41;;;;;;;;;;;23.10;99.90;;;;;;5073096;28;19915;-69
2022/11/19 01:00:08;;;;;;;;;;;23.10;99.90;;;;;;5072014;28;20011;-69
2022/11/19 01:02:35;;;;;;;;;;;23.10;99.90;;;;;;5072103;28;19912;-69
2022/11/19 01:05:01;;;;;;;;;;;23.20;99.90;;;;;;5072824;28;19915;-69
2022/11/19 01:07:28;;;;;;;;;;;23.60;99.90;;;;;;5075894;28;20337;-68
2022/11/19 01:09:55;;;;;;;;;;;23.60;99.90;;;;;;5076975;28;19908;-68
2022/11/19 01:12:21;;;;;;;;;;;23.60;99.90;;;;;;5076693;28;20324;-69
2022/11/19 01:14:48;;;;;;;;;;;23.50;99.90;;;;;;5075566;28;20018;-68
2022/11/19 01:17:15;;;;;;;;;;;23.30;99.90;;;;;;5076699;28;19982;-69
2022/11/19 01:19:41;;;;;;;;;;;23.00;99.90;;;;;;5076615;28;19916;-68
2022/11/19 01:22:08;;;;;;;;;;;22.70;99.90;;;;;;5076563;28;19913;-67
2022/11/19 01:24:35;;;;;;;;;;;22.30;99.90;;;;;;5076707;28;20328;-68
2022/11/19 01:27:01;;;;;;;;;;;22.00;99.90;;;;;;5076216;28;20007;-67
2022/11/19 01:29:28;;;;;;;;;;;21.80;99.90;;;;;;5075526;28;19927;-67
2022/11/19 01:31:55;;;;;;;;;;;21.50;99.90;;;;;;5074341;28;19912;-67
2022/11/19 01:34:21;;;;;;;;;;;21.30;99.90;;;;;;5075066;28;20270;-68
2022/11/19 01:36:48;;;;;;;;;;;21.10;99.90;;;;;;5075988;28;20379;-67
2022/11/19 01:39:14;;;;;;;;;;;21.00;99.90;;;;;;5076417;28;19962;-69
2022/11/19 01:41:41;;;;;;;;;;;21.00;99.90;;;;;;5075994;28;19908;-69
2022/11/19 01:44:27;;;;;;;;;;;21.10;99.90;;;;;;5075354;28;20019;-68
2022/11/19 01:46:54;;;;;;;;;;;21.10;99.90;;;;;;5075013;28;19913;-69
2022/11/19 01:49:21;;;;;;;;;;;21.20;99.90;;;;;;5076138;28;19995;-68
2022/11/19 01:51:58;;;;;;;;;;;21.30;99.90;;;;;;5076050;28;19912;-67
2022/11/19 01:54:28;;;;;;;;;;;21.30;99.90;;;;;;5075959;28;19923;-68
2022/11/19 01:56:57;;;;;;;;;;;21.50;99.90;;;;;;5075689;28;19916;-68
2022/11/19 01:59:25;;;;;;;;;;;21.40;99.90;;;;;;5075143;28;19912;-68
2022/11/19 02:01:52;;;;;;;;;;;21.40;99.90;;;;;;5075188;28;19920;-67
2022/11/19 02:04:20;;;;;;;;;;;21.40;99.90;;;;;;5076008;28;19909;-68
2022/11/19 02:06:46;;;;;;;;;;;21.50;99.90;;;;;;5075743;28;19908;-68
2022/11/19 02:09:13;;;;;;;;;;;21.50;99.90;;;;;;5075708;28;20329;-68
2022/11/19 02:12:06;;;;;;;;;;;21.60;99.90;;;;;;5075544;28;20340;-67
2022/11/19 02:14:52;;;;;;;;;;;21.70;99.90;;;;;;5070970;28;19920;-66
2022/11/19 02:17:25;;;;;;;;;;;21.70;99.90;;;;;;5075443;28;19978;-68
2022/11/19 02:20:09;;;;;;;;;;;21.60;99.90;;;;;;5075721;28;19962;-67
2022/11/19 02:22:36;;;;;;;;;;;21.60;99.90;;;;;;5075619;28;19938;-66
2022/11/19 02:25:21;;;;;;;;;;;21.60;99.90;;;;;;5075228;28;19916;-67
2022/11/19 02:27:50;;;;;;;;;;;21.60;99.90;;;;;;5074471;28;19920;-69
2022/11/19 02:30:18;;;;;;;;;;;21.50;99.90;;;;;;5074833;28;19913;-69
2022/11/19 02:32:57;;;;;;;;;;;21.50;99.90;;;;;;5075476;28;19912;-69
2022/11/19 02:35:27;;;;;;;;;;;21.50;99.90;;;;;;5075348;28;20371;-68
2022/11/19 02:37:58;;;;;;;;;;;21.50;99.90;;;;;;5075205;28;19915;-68
2022/11/19 02:40:35;;;;;;;;;;;21.50;99.90;;;;;;5074965;28;19954;-67
2022/11/19 02:43:07;;;;;;;;;;;21.50;99.90;;;;;;5074155;28;19912;-68
2022/11/19 02:46:03;;;;;;;;;;;21.50;99.90;;;;;;5075221;28;20008;-69
2022/11/19 02:48:37;;;;;;;;;;;21.60;99.90;;;;;;5057780;28;19962;-68
2022/11/19 02:51:04;;;;;;;;;;;21.50;99.90;;;;;;5074773;28;20275;-66
2022/11/19 02:53:32;;;;;;;;;;;21.30;99.90;;;;;;5074817;28;20003;-69
2022/11/19 02:56:10;;;;;;;;;;;21.30;99.90;;;;;;5074435;28;19954;-67
2022/11/19 03:04:30;;;;;;;;;;;21.10;99.90;;;;;;5075132;28;19977;-66
2022/11/19 03:06:59;;;;;;;;;;;21.10;99.90;;;;;;5074501;28;19909;-62
2022/11/19 03:09:26;;;;;;;;;;;21.20;99.90;;;;;;5074724;28;20381;-63
2022/11/19 03:11:58;;;;;;;;;;;21.20;99.90;;;;;;5073698;28;20366;-62
2022/11/19 03:17:29;;;;;;;;;;;21.20;99.90;;;;;;5074728;28;20278;-62
2022/11/19 03:20:04;;;;;;;;;;;21.30;99.90;;;;;;5074489;28;20385;-65
2022/11/19 03:22:41;;;;;;;;;;;21.30;99.90;;;;;;5074439;28;20011;-62
2022/11/19 03:25:31;;;;;;;;;;;21.30;99.90;;;;;;5074018;28;19912;-62
2022/11/19 03:28:00;;;;;;;;;;;21.20;99.90;;;;;;5073362;28;19923;-62
2022/11/19 03:30:28;;;;;;;;;;;21.30;99.90;;;;;;5073869;28;19995;-62
2022/11/19 03:32:55;;;;;;;;;;;21.30;99.90;;;;;;5073971;28;19908;-63
2022/11/19 03:35:27;;;;;;;;;;;21.40;99.90;;;;;;5074082;28;19917;-63
2022/11/19 03:37:56;;;;;;;;;;;21.40;99.90;;;;;;5074105;28;19995;-62
2022/11/19 03:40:24;;;;;;;;;;;21.40;99.90;;;;;;5073796;28;20264;-62
2022/11/19 03:42:51;;;;;;;;;;;21.30;99.90;;;;;;5073003;28;19917;-63
2022/11/19 03:45:20;;;;;;;;;;;21.30;99.90;;;;;;5073680;28;19912;-63
2022/11/19 03:47:49;;;;;;;;;;;21.40;99.90;;;;;;5073271;28;20366;-63
2022/11/19 03:50:29;;;;;;;;;;;21.50;99.90;;;;;;5073788;28;19915;-62
2022/11/19 03:52:57;;;;;;;;;;;21.50;99.90;;;;;;5073487;28;20290;-64
2022/11/19 03:55:27;;;;;;;;;;;21.50;99.90;;;;;;5073338;28;19920;-63
2022/11/19 03:57:54;;;;;;;;;;;21.50;99.90;;;;;;5072787;28;19913;-62
2022/11/19 04:00:20;;;;;;;;;;;21.40;99.90;;;;;;5073552;28;19908;-62
2022/11/19 04:02:47;;;;;;;;;;;21.30;99.90;;;;;;5073098;28;19912;-62
2022/11/19 04:05:13;;;;;;;;;;;21.40;99.90;;;;;;5073658;28;19954;-62
2022/11/19 04:07:40;;;;;;;;;;;21.50;99.90;;;;;;5073491;28;19908;-62
2022/11/19 04:10:07;;;;;;;;;;;21.40;99.90;;;;;;5073229;28;19935;-62
2022/11/19 04:12:34;;;;;;;;;;;21.40;99.90;;;;;;5072758;28;20278;-63
2022/11/19 04:15:00;;;;;;;;;;;21.30;99.90;;;;;;5072481;28;20322;-62
2022/11/19 04:17:27;;;;;;;;;;;21.30;99.90;;;;;;5073495;28;20367;-62
2022/11/19 04:19:54;;;;;;;;;;;21.30;99.90;;;;;;5073451;28;19915;-62
2022/11/19 04:22:20;;;;;;;;;;;21.10;99.90;;;;;;5073495;28;20350;-62
2022/11/19 04:24:47;;;;;;;;;;;21.10;99.90;;;;;;5072965;28;20289;-62
2022/11/19 04:27:13;;;;;;;;;;;21.20;99.90;;;;;;5072416;28;20020;-63
2022/11/19 04:29:40;;;;;;;;;;;21.10;99.90;;;;;;5073273;28;20271;-62
2022/11/19 04:32:07;;;;;;;;;;;21.10;99.90;;;;;;5073216;28;19909;-63
2022/11/19 04:34:33;;;;;;;;;;;21.10;99.90;;;;;;5073238;28;19919;-63
2022/11/19 04:37:00;;;;;;;;;;;21.10;99.90;;;;;;5071640;28;20355;-62
2022/11/19 04:39:27;;;;;;;;;;;21.10;99.90;;;;;;5073064;28;19908;-62
2022/11/19 04:41:53;;;;;;;;;;;21.10;99.90;;;;;;5071318;28;19914;-61
2022/11/19 04:44:20;;;;;;;;;;;21.00;99.90;;;;;;5072300;28;19912;-63
2022/11/19 04:46:47;;;;;;;;;;;21.00;99.90;;;;;;5072794;28;19908;-61
2022/11/19 04:49:13;;;;;;;;;;;21.00;99.90;;;;;;5073063;28;20267;-61
2022/11/19 04:51:40;;;;;;;;;;;21.00;99.90;;;;;;5073006;28;20386;-62
2022/11/19 04:54:09;;;;;;;;;;;21.00;99.90;;;;;;5072762;28;20363;-61
2022/11/19 04:56:36;;;;;;;;;;;21.10;99.90;;;;;;5072011;28;20019;-61
2022/11/19 04:59:04;;;;;;;;;;;21.10;99.90;;;;;;5072001;28;19917;-62
2022/11/19 05:01:30;;;;;;;;;;;21.10;99.90;;;;;;5072955;28;19909;-62
2022/11/19 05:03:57;;;;;;;;;;;21.00;99.90;;;;;;5072896;28;19915;-61
2022/11/19 05:06:24;;;;;;;;;;;21.00;99.90;;;;;;5073051;28;19909;-63
2022/11/19 05:08:50;;;;;;;;;;;20.90;99.90;;;;;;5072770;28;20438;-62
2022/11/19 05:11:17;;;;;;;;;;;20.80;99.90;;;;;;5072007;28;20279;-63
2022/11/19 05:13:44;;;;;;;;;;;20.60;99.90;;;;;;5071999;28;19919;-62
2022/11/19 05:16:10;;;;;;;;;;;20.50;99.90;;;;;;5072679;28;19957;-64
2022/11/19 05:18:37;;;;;;;;;;;20.60;99.90;;;;;;5072897;28;19913;-66
2022/11/19 05:21:04;;;;;;;;;;;20.50;99.90;;;;;;5072506;28;20377;-64
2022/11/19 05:23:30;;;;;;;;;;;20.40;99.90;;;;;;5072721;28;19908;-64
2022/11/19 05:25:57;;;;;;;;;;;20.40;99.90;;;;;;5071650;28;19912;-62
2022/11/19 05:28:24;;;;;;;;;;;20.50;99.90;;;;;;5072720;28;20279;-63
2022/11/19 05:30:54;;;;;;;;;;;20.50;99.90;;;;;;5071242;28;19913;-67
2022/11/19 05:33:21;;;;;;;;;;;20.50;99.90;;;;;;5072057;28;20374;-65
2022/11/19 05:35:47;;;;;;;;;;;20.50;99.90;;;;;;5072614;28;20290;-63
2022/11/19 05:38:14;;;;;;;;;;;20.60;99.90;;;;;;5072334;28;20385;-67
2022/11/19 05:40:42;;;;;;;;;;;20.70;99.90;;;;;;5072332;28;19954;-64
2022/11/19 05:43:09;;;;;;;;;;;20.70;99.90;;;;;;5072453;28;19908;-66
2022/11/19 05:45:36;;;;;;;;;;;20.70;99.90;;;;;;5071619;28;19912;-65
2022/11/19 05:48:02;;;;;;;;;;;20.70;99.90;;;;;;5072379;28;19908;-67
2022/11/19 05:50:29;;;;;;;;;;;20.60;99.90;;;;;;5072400;28;19939;-63
2022/11/19 05:52:57;;;;;;;;;;;20.60;99.90;;;;;;5074027;28;19908;-66
2022/11/19 05:55:24;;;;;;;;;;;20.60;99.90;;;;;;5075332;28;20361;-67
2022/11/19 05:57:50;;;;;;;;;;;20.60;99.90;;;;;;5075775;28;19909;-67
2022/11/19 06:00:17;;;;;;;;;;;20.60;99.90;;;;;;5075126;28;19913;-64
2022/11/19 06:02:44;;;;;;;;;;;20.50;99.90;;;;;;5075886;28;19944;-68
2022/11/19 06:05:11;;;;;;;;;;;20.40;99.90;;;;;;5075654;28;20386;-63
2022/11/19 06:07:37;;;;;;;;;;;20.40;99.90;;;;;;5075771;28;19913;-65
2022/11/19 06:10:04;;;;;;;;;;;20.50;99.90;;;;;;5075651;28;19961;-65
2022/11/19 06:12:31;;;;;;;;;;;20.50;99.90;;;;;;5075727;28;20422;-66
2022/11/19 06:14:58;;;;;;;;;;;20.50;99.90;;;;;;5074777;28;19955;-62
2022/11/19 06:17:24;;;;;;;;;;;20.50;99.90;;;;;;5074234;28;19913;-62
2022/11/19 06:19:51;;;;;;;;;;;20.40;99.90;;;;;;5075650;28;19931;-66
2022/11/19 06:22:18;;;;;;;;;;;20.50;99.90;;;;;;5075487;28;19912;-64
2022/11/19 06:24:44;;;;;;;;;;;20.50;99.90;;;;;;5075260;28;19980;-64
2022/11/19 06:27:11;;;;;;;;;;;20.60;99.90;;;;;;5075313;28;19912;-64
2022/11/19 06:29:38;;;;;;;;;;;20.50;99.90;;;;;;5075418;28;20392;-66
2022/11/19 06:32:04;;;;;;;;;;;20.50;99.90;;;;;;5074433;28;20359;-68
2022/11/19 06:34:31;;;;;;;;;;;20.50;99.90;;;;;;5075038;28;19916;-68
2022/11/19 06:36:58;;;;;;;;;;;20.50;99.90;;;;;;5075022;28;19971;-67
2022/11/19 06:39:24;;;;;;;;;;;20.50;99.90;;;;;;5075040;28;19991;-69
2022/11/19 06:41:51;;;;;;;;;;;20.60;99.90;;;;;;5075179;28;19908;-69
2022/11/19 06:44:18;;;;;;;;;;;20.60;99.90;;;;;;5075126;28;19912;-69
2022/11/19 06:46:44;;;;;;;;;;;20.60;99.90;;;;;;5073438;28;19919;-68
2022/11/19 06:49:11;;;;;;;;;;;20.70;99.90;;;;;;5074964;28;19946;-67
2022/11/19 06:51:38;;;;;;;;;;;20.70;99.90;;;;;;5074875;28;19916;-67
2022/11/19 06:54:04;;;;;;;;;;;20.70;99.90;;;;;;5074621;28;19917;-66
2022/11/19 06:56:31;;;;;;;;;;;20.60;99.90;;;;;;5074708;28;19927;-66
2022/11/19 06:58:58;;;;;;;;;;;20.60;99.90;;;;;;5074705;28;19920;-67
2022/11/19 07:01:24;;;;;;;;;;;20.50;99.90;;;;;;5073835;28;19957;-64
2022/11/19 07:03:51;;;;;;;;;;;20.40;99.90;;;;;;5073647;28;19916;-67
2022/11/19 07:06:17;;;;;;;;;;;20.40;99.90;;;;;;5074727;28;20291;-65
2022/11/19 07:08:44;;;;;;;;;;;20.40;99.90;;;;;;5074454;28;19915;-69
2022/11/19 07:11:26;;;;;;;;;;;20.40;99.90;;;;;;5074580;28;19996;-69
2022/11/19 07:13:57;;;;;;;;;;;20.40;99.90;;;;;;5074665;28;19909;-69
2022/11/19 07:16:31;;;;;;;;;;;20.40;99.90;;;;;;5073284;28;20294;-69
2022/11/19 07:18:58;;;;;;;;;;;20.40;99.90;;;;;;5074294;28;19913;-68
2022/11/19 07:21:25;;;;;;;;;;;20.40;99.90;;;;;;5074204;28;19909;-69
2022/11/19 07:23:52;;;;;;;;;;;20.40;99.90;;;;;;5074106;28;19909;-67
2022/11/19 07:26:19;;;;;;;;;;;20.30;99.90;;;;;;5074231;28;19908;-69
2022/11/19 07:28:47;;;;;;;;;;;20.30;99.90;;;;;;5073320;28;19935;-67
2022/11/19 07:31:14;;;;;;;;;;;20.30;99.90;;;;;;5074223;28;19990;-63
2022/11/19 07:33:41;;;;;;;;;;;20.30;99.90;;;;;;5074419;28;20052;-68
2022/11/19 07:36:08;;;;;;;;;;;20.20;99.90;;;;;;5074211;28;19909;-65
2022/11/19 07:38:36;;;;;;;;;;;20.20;99.90;;;;;;5073887;28;19908;-67
2022/11/19 07:42:48;;;;;;;;;;;20.20;99.90;;;;;;5073869;28;19909;-64
2022/11/19 07:43:49;;;;;;;;;;;20.10;99.90;;;;;;5073156;28;19912;-64
2022/11/19 07:46:16;;;;;;;;;;;20.10;99.90;;;;;;5073932;28;19919;-64
2022/11/19 07:48:43;;;;;;;;;;;20.20;99.90;;;;;;5073588;28;20350;-66
2022/11/19 07:51:09;;;;;;;;;;;20.10;99.90;;;;;;5073626;28;20260;-65
2022/11/19 07:53:36;;;;;;;;;;;20.10;99.90;;;;;;5073602;28;19952;-63
2022/11/19 07:56:03;;;;;;;;;;;20.00;99.90;;;;;;5073496;28;19977;-63
2022/11/19 07:58:30;;;;;;;;;;;20.00;99.90;;;;;;5072630;28;19921;-62
2022/11/19 08:00:56;;;;;;;;;;;20.00;99.90;;;;;;5073554;28;19912;-63
2022/11/19 08:03:23;;;;;;;;;;;20.10;99.90;;;;;;5073449;28;19916;-63
2022/11/19 08:05:50;;;;;;;;;;;20.00;99.90;;;;;;5073511;28;19908;-63
2022/11/19 08:08:16;;;;;;;;;;;20.00;99.90;;;;;;5073306;28;19995;-63
2022/11/19 08:10:43;;;;;;;;;;;20.00;99.90;;;;;;5073409;28;19908;-62
2022/11/19 08:13:09;;;;;;;;;;;20.00;99.90;;;;;;5072351;28;19909;-62
2022/11/19 08:15:36;;;;;;;;;;;20.00;99.90;;;;;;5073153;28;19920;-64
2022/11/19 08:18:12;;;;;;;;;;;20.00;99.90;;;;;;5073427;28;20299;-62
2022/11/19 08:20:39;;;;;;;;;;;20.00;99.90;;;;;;5073435;28;19999;-62
2022/11/19 08:23:06;;;;;;;;;;;20.00;99.90;;;;;;5073002;28;19934;-63
2022/11/19 08:25:33;;;;;;;;;;;20.00;99.90;;;;;;5073475;28;19955;-62
2022/11/19 08:28:00;;;;;;;;;;;20.00;99.90;;;;;;5072498;28;19924;-62
2022/11/19 08:30:26;;;;;;;;;;;19.90;99.90;;;;;;5072471;28;19955;-62
2022/11/19 08:32:53;;;;;;;;;;;20.00;99.90;;;;;;5073109;28;19909;-62
2022/11/19 08:35:20;;;;;;;;;;;20.00;99.90;;;;;;5073182;28;19946;-62
2022/11/19 08:37:47;;;;;;;;;;;20.00;99.90;;;;;;5073306;28;19932;-62
2022/11/19 08:40:14;;;;;;;;;;;20.00;99.90;;;;;;5073064;28;19909;-62
2022/11/19 08:42:59;;;;;;;;;;;20.00;99.90;;;;;;5072252;28;19909;-62
2022/11/19 08:45:29;;;;;;;;;;;19.90;99.90;;;;;;5073260;28;19908;-62
2022/11/19 08:47:57;;;;;;;;;;;20.00;99.90;;;;;;5073133;28;19908;-62
2022/11/19 08:50:24;;;;;;;;;;;20.00;99.90;;;;;;5073007;28;19915;-63
2022/11/19 08:53:01;;;;;;;;;;;19.90;99.90;;;;;;5072734;28;20252;-62
2022/11/19 08:55:29;;;;;;;;;;;20.00;99.90;;;;;;5072891;28;20406;-63
2022/11/19 08:57:59;;;;;;;;;;;19.90;99.90;;;;;;5072159;28;19913;-63
2022/11/19 09:00:26;;;;;;;;;;;19.90;99.90;;;;;;5072157;28;20436;-62
2022/11/19 09:02:53;;;;;;;;;;;19.90;99.90;;;;;;5072824;28;19953;-63
2022/11/19 09:05:19;;;;;;;;;;;19.90;99.90;;;;;;5072957;28;19908;-62
2022/11/19 09:07:46;;;;;;;;;;;19.90;99.90;;;;;;5072763;28;20374;-62
2022/11/19 09:10:13;;;;;;;;;;;19.90;99.90;;;;;;5072924;28;20270;-63
2022/11/19 09:12:39;;;;;;;;;;;19.90;99.90;;;;;;5072114;28;19913;-62
2022/11/19 09:15:07;;;;;;;;;;;19.90;99.90;;;;;;5072492;28;19917;-62
2022/11/19 09:17:34;;;;;;;;;;;19.90;99.90;;;;;;5072814;28;19908;-62
2022/11/19 09:20:01;;;;;;;;;;;19.90;99.90;;;;;;5072817;28;19909;-62
2022/11/19 09:22:28;;;;;;;;;;;19.80;99.90;;;;;;5072800;28;19976;-63
2022/11/19 09:24:55;;;;;;;;;;;19.80;99.90;;;;;;5072401;28;19908;-62
2022/11/19 09:27:22;;;;;;;;;;;19.80;99.90;;;;;;5072917;28;19939;-63
2022/11/19 09:29:48;;;;;;;;;;;19.80;99.90;;;;;;5075576;28;20003;-62
2022/11/19 09:32:15;;;;;;;;;;;19.80;99.90;;;;;;5076413;28;19916;-62
2022/11/19 09:34:42;;;;;;;;;;;19.70;99.90;;;;;;5076393;28;20351;-65
2022/11/19 09:37:09;;;;;;;;;;;19.70;99.90;;;;;;5076059;28;19966;-65
2022/11/19 09:39:35;;;;;;;;;;;19.70;99.90;;;;;;5076087;28;19916;-63
2022/11/19 09:42:02;;;;;;;;;;;19.70;99.90;;;;;;5075314;28;19938;-62
2022/11/19 09:44:47;;;;;;;;;;;19.70;99.90;;;;;;5076163;28;19912;-64
2022/11/19 09:47:26;;;;;;;;;;;19.70;99.90;;;;;;5076228;28;19908;-63
2022/11/19 09:49:55;;;;;;;;;;;19.60;99.90;;;;;;5075983;28;19934;-64
2022/11/19 09:52:24;;;;;;;;;;;19.70;99.90;;;;;;5076045;28;19909;-63
2022/11/19 09:54:55;;;;;;;;;;;19.70;99.90;;;;;;5075318;28;19920;-62
2022/11/19 09:57:34;;;;;;;;;;;19.70;99.90;;;;;;5075244;28;19919;-63
2022/11/19 10:00:01;;;;;;;;;;;19.70;99.90;;;;;;5075922;28;19953;-62
2022/11/19 10:02:29;;;;;;;;;;;19.70;99.90;;;;;;5075943;28;19919;-65
2022/11/19 10:04:56;;;;;;;;;;;19.70;99.90;;;;;;5075590;28;19955;-63
2022/11/19 10:07:31;;;;;;;;;;;19.70;99.90;;;;;;5075714;28;19920;-63
2022/11/19 10:09:58;;;;;;;;;;;19.70;99.90;;;;;;5075932;28;19913;-62
2022/11/19 10:12:43;;;;;;;;;;;19.70;99.90;;;;;;5074909;28;19909;-62
2022/11/19 10:15:25;;;;;;;;;;;19.80;99.90;;;;;;5075418;28;19973;-63
2022/11/19 10:17:58;;;;;;;;;;;19.80;99.90;;;;;;5075746;28;20435;-62
2022/11/19 10:20:42;;;;;;;;;;;19.80;99.90;;;;;;5075623;28;19951;-63
2022/11/19 10:23:09;;;;;;;;;;;19.90;99.90;;;;;;5075427;28;19999;-62
2022/11/19 10:25:38;;;;;;;;;;;19.90;99.90;;;;;;5075570;28;19947;-62
2022/11/19 10:28:10;;;;;;;;;;;19.80;99.90;;;;;;5053925;28;19928;-63
2022/11/19 10:30:37;;;;;;;;;;;19.90;99.90;;;;;;5055510;28;20347;-63
2022/11/19 10:33:04;;;;;;;;;;;19.80;99.90;;;;;;5055217;28;19909;-62
2022/11/19 10:35:31;;;;;;;;;;;19.90;99.90;;;;;;5055353;28;20011;-64
2022/11/19 10:38:06;;;;;;;;;;;19.90;99.90;;;;;;5055230;28;19909;-61
2022/11/19 10:40:37;;;;;;;;;;;19.80;99.90;;;;;;5055424;28;19954;-64
2022/11/19 10:43:18;;;;;;;;;;;19.80;99.90;;;;;;5074577;28;19951;-63
2022/11/19 10:45:45;;;;;;;;;;;19.80;99.90;;;;;;5075322;28;19908;-62
2022/11/19 10:48:19;;;;;;;;;;;19.80;99.90;;;;;;5075011;28;19915;-62
2022/11/19 10:50:46;;;;;;;;;;;19.80;99.90;;;;;;5074945;28;20410;-62
2022/11/19 10:53:24;;;;;;;;;;;19.70;99.90;;;;;;5074882;28;19916;-62
2022/11/19 10:56:04;;;;;;;;;;;19.80;99.90;;;;;;5074095;28;20371;-62
2022/11/19 10:58:42;;;;;;;;;;;19.70;99.90;;;;;;5074961;28;19916;-63
2022/11/19 11:01:37;;;;;;;;;;;19.80;99.90;;;;;;5074833;28;19957;-63
2022/11/19 11:04:07;;;;;;;;;;;19.70;99.90;;;;;;5057890;28;19909;-62
2022/11/19 11:06:54;;;;;;;;;;;19.70;99.90;;;;;;5074886;28;19908;-62
2022/11/19 11:09:28;;;;;;;;;;;19.70;99.90;;;;;;5074228;28;19924;-64
2022/11/19 11:14:53;;;;;;;;;;;19.70;99.90;;;;;;5074106;28;19923;-63
2022/11/19 11:17:29;;;;;;;;;;;19.80;99.90;;;;;;5074709;28;19908;-64
2022/11/19 11:19:57;;;;;;;;;;;19.80;99.90;;;;;;5074634;28;19908;-62
2022/11/19 11:22:25;;;;;;;;;;;19.80;99.90;;;;;;5074386;28;19955;-64
2022/11/19 11:24:51;;;;;;;;;;;19.80;99.90;;;;;;5073404;28;19949;-69
2022/11/19 11:27:27;;;;;;;;;;;19.80;99.90;;;;;;5074299;28;19912;-69
2022/11/19 11:30:11;;;;;;;;;;;19.80;99.90;;;;;;5074513;28;19909;-66
2022/11/19 11:32:38;;;;;;;;;;;19.80;99.90;;;;;;5074323;28;19912;-69
2022/11/19 11:35:05;;;;;;;;;;;19.80;99.90;;;;;;5074006;28;19982;-68
2022/11/19 11:37:32;;;;;;;;;;;19.80;99.90;;;;;;5074193;28;19952;-69
2022/11/19 11:40:00;;;;;;;;;;;19.80;99.90;;;;;;5073394;28;19938;-69
2022/11/19 11:42:28;;;;;;;;;;;19.80;99.90;;;;;;5074098;28;19916;-68
2022/11/19 11:44:56;;;;;;;;;;;19.80;99.90;;;;;;5073761;28;19973;-67
2022/11/19 11:47:26;;;;;;;;;;;19.80;99.90;;;;;;5074059;28;19954;-69
2022/11/19 11:49:59;;;;;;;;;;;19.80;99.90;;;;;;5073531;28;19908;-69
2022/11/19 11:52:33;;;;;;;;;;;19.80;99.90;;;;;;5073741;28;20378;-68
2022/11/19 11:55:06;;;;;;;;;;;19.80;99.90;;;;;;5072686;28;19920;-69
2022/11/19 11:57:34;;;;;;;;;;;19.80;99.90;;;;;;5073847;28;19909;-69
2022/11/19 12:00:01;;;;;;;;;;;19.80;99.90;;;;;;5073901;28;20371;-69
2022/11/19 12:02:31;;;;;;;;;;;19.80;99.90;;;;;;5073747;28;20380;-68
2022/11/19 12:05:02;;;;;;;;;;;19.80;99.90;;;;;;5073552;28;20081;-69
2022/11/19 12:07:38;;;;;;;;;;;19.80;99.90;;;;;;5073700;28;19912;-69
2022/11/19 12:10:23;;;;;;;;;;;19.80;99.90;;;;;;5072533;28;20252;-68
2022/11/19 12:12:53;;;;;;;;;;;19.80;99.90;;;;;;5073331;28;19999;-69
2022/11/19 12:15:28;;;;;;;;;;;19.80;99.90;;;;;;5073521;28;19990;-69
2022/11/19 12:17:58;;;;;;;;;;;19.90;99.90;;;;;;5073465;28;20408;-62
2022/11/19 12:20:43;;;;;;;;;;;19.90;99.90;;;;;;5073548;28;20371;-65
2022/11/19 12:23:09;;;;;;;;;;;19.90;99.90;;;;;;5073595;28;19916;-65
2022/11/19 12:25:56;;;;;;;;;;;19.90;99.90;;;;;;5072688;28;19913;-64
2022/11/19 12:28:46;;;;;;;;;;;20.00;99.90;;;;;;5073122;28;19908;-68
2022/11/19 12:31:22;;;;;;;;;;;20.00;99.90;;;;;;5073553;28;19908;-67
2022/11/19 12:33:57;;;;;;;;;;;20.00;99.90;;;;;;5073343;28;19935;-66
2022/11/19 12:36:44;;;;;;;;;;;19.90;99.90;;;;;;5073463;28;19916;-69
2022/11/19 12:39:10;;;;;;;;;;;19.90;99.90;;;;;;5031232;28;19947;-68
2022/11/19 12:41:52;;;;;;;;;;;19.90;99.90;;;;;;5073280;28;19909;-63
2022/11/19 12:44:34;;;;;;;;;;;19.90;99.90;;;;;;5073186;28;19967;-64
2022/11/19 12:47:24;;;;;;;;;;;19.90;99.90;;;;;;5073041;28;19908;-63
2022/11/19 12:49:55;;;;;;;;;;;19.90;99.90;;;;;;5073330;28;19995;-63
2022/11/19 12:52:34;;;;;;;;;;;19.90;99.90;;;;;;5072996;28;20438;-62
2022/11/19 12:55:09;;;;;;;;;;;19.90;99.90;;;;;;5071332;28;19921;-62
2022/11/19 12:57:39;;;;;;;;;;;19.90;99.90;;;;;;5072710;28;19995;-63
2022/11/19 13:00:05;;;;;;;;;;;19.80;99.90;;;;;;5073132;28;20351;-63
2022/11/19 13:02:35;;;;;;;;;;;19.80;99.90;;;;;;5074615;28;19950;-63
2022/11/19 13:05:06;;;;;;;;;;;19.70;99.90;;;;;;5076938;28;20334;-63
2022/11/19 13:07:37;;;;;;;;;;;19.70;99.90;;;;;;5076995;28;19916;-63
2022/11/19 13:10:24;;;;;;;;;;;19.70;99.90;;;;;;5076500;28;19916;-62
2022/11/19 13:12:52;;;;;;;;;;;19.70;99.90;;;;;;5076808;28;19915;-63
2022/11/19 13:15:22;;;;;;;;;;;19.70;99.90;;;;;;5076981;28;20282;-62
2022/11/19 13:17:51;;;;;;;;;;;19.70;99.90;;;;;;5076937;28;19957;-68
2022/11/19 13:20:20;;;;;;;;;;;19.70;99.90;;;;;;5076843;28;20256;-68
2022/11/19 13:22:49;;;;;;;;;;;19.70;99.90;;;;;;5075632;28;19932;-68
2022/11/19 13:25:23;;;;;;;;;;;19.70;99.90;;;;;;5076736;28;20393;-67
2022/11/19 13:27:51;;;;;;;;;;;19.60;99.90;;;;;;5076073;28;19951;-68
2022/11/19 13:30:20;;;;;;;;;;;19.60;99.90;;;;;;5076960;28;20373;-68
2022/11/19 13:32:53;;;;;;;;;;;19.60;99.90;;;;;;5076788;28;19916;-67
2022/11/19 13:35:23;;;;;;;;;;;19.50;99.90;;;;;;5076636;28;19923;-68
2022/11/19 13:38:07;;;;;;;;;;;19.50;99.90;;;;;;5075568;28;19916;-68
2022/11/19 13:40:34;;;;;;;;;;;19.50;99.90;;;;;;5076295;28;19995;-68
2022/11/19 13:45:51;;;;;;;;;;;19.50;99.90;;;;;;5076722;28;20283;-69
2022/11/19 13:48:26;;;;;;;;;;;19.40;99.90;;;;;;5076439;28;19908;-69
2022/11/19 13:50:54;;;;;;;;;;;19.40;99.90;;;;;;5076000;28;19908;-68
2022/11/19 13:53:26;;;;;;;;;;;19.40;99.90;;;;;;5075242;28;19912;-69
2022/11/19 13:55:56;;;;;;;;;;;19.40;99.90;;;;;;5075305;28;19920;-69
2022/11/19 13:58:29;;;;;;;;;;;19.30;99.90;;;;;;5074958;28;19909;-67
2022/11/19 14:01:10;;;;;;;;;;;19.40;99.90;;;;;;5074779;28;19916;-68
2022/11/19 14:03:42;;;;;;;;;;;19.30;99.90;;;;;;5074989;28;20252;-69
2022/11/19 14:06:24;;;;;;;;;;;19.30;99.90;;;;;;5074504;28;20410;-68
2022/11/19 14:08:59;;;;;;;;;;;19.30;99.90;;;;;;5073678;28;19912;-69
2022/11/19 14:11:33;;;;;;;;;;;19.30;99.90;;;;;;5074725;28;20322;-69
2022/11/19 14:28:47;;;;;;;;;;;19.50;99.90;;;;;;5074901;28;20001;-69
2022/11/19 14:31:15;;;;;;;;;;;19.60;99.90;;;;;;5074462;28;19951;-67
2022/11/19 14:33:56;;;;;;;;;;;19.60;99.90;;;;;;5074605;28;19915;-69
2022/11/19 14:36:45;;;;;;;;;;;19.60;99.90;;;;;;5073658;28;19923;-66
2022/11/19 14:39:19;;;;;;;;;;;19.60;99.90;;;;;;5074487;28;20260;-69
2022/11/19 14:41:46;;;;;;;;;;;19.70;99.90;;;;;;5074299;28;19908;-65
2022/11/19 14:44:24;;;;;;;;;;;19.70;99.90;;;;;;5074300;28;20035;-68
2022/11/19 14:46:51;;;;;;;;;;;19.70;99.90;;;;;;5074016;28;20428;-66
2022/11/19 14:49:22;;;;;;;;;;;19.70;99.90;;;;;;5074143;28;20329;-65
2022/11/19 14:51:53;;;;;;;;;;;19.70;99.90;;;;;;5073285;28;19919;-66
2022/11/19 14:57:08;;;;;;;;;;;19.60;99.90;;;;;;5111131;27;20383;-66
2022/11/19 14:59:37;;;;;;;;;;;19.60;99.90;;;;;;5111350;28;20336;-64
2022/11/19 15:02:09;;;;;;;;;;;19.60;99.90;;;;;;5111264;28;19908;-65
2022/11/19 15:04:39;;;;;;;;;;;19.60;99.90;;;;;;5111165;28;19961;-64